Time;durP1;ratioP1;P1;durP2;ratioP2;P2;SDS_P1;SDS_P2;PMS_P1;PMS_P2;Temp;Humidity;BMP_temperature;BMP_pressure;BME280_temperature;BME280_humidity;BME280_pressure;Samples;Min_cycle;Max_cycle;Signal;HPM_P1;HPM_P2
2023/12/05 00:00:33;;;;;;;5.93;3.45;;;2.50;99.90;;;;;;4955301;29;20479;-73
2023/12/05 00:02:59;;;;;;;6.55;3.05;;;2.50;99.90;;;;;;4955204;28;20110;-73
2023/12/05 00:05:24;;;;;;;6.53;3.60;;;2.50;99.90;;;;;;4955291;29;20031;-73
2023/12/05 00:07:50;;;;;;;6.97;3.13;;;2.50;99.90;;;;;;4956245;29;20027;-72
2023/12/05 00:10:16;;;;;;;7.30;3.40;;;2.50;99.90;;;;;;4956554;29;20029;-72
2023/12/05 00:12:42;;;;;;;6.60;3.22;;;2.50;99.90;;;;;;4955442;29;20122;-73
2023/12/05 00:15:08;;;;;;;7.47;3.53;;;2.50;99.90;;;;;;4956466;29;20027;-73
2023/12/05 00:17:34;;;;;;;6.78;3.40;;;2.60;99.90;;;;;;4956121;29;20028;-73
2023/12/05 00:19:59;;;;;;;6.28;3.30;;;2.50;99.90;;;;;;4956148;29;20466;-74
2023/12/05 00:22:28;;;;;;;6.75;3.55;;;2.60;99.90;;;;;;4955672;28;20493;-73
2023/12/05 00:24:54;;;;;;;6.53;3.63;;;2.60;99.90;;;;;;4956407;29;20106;-74
2023/12/05 00:27:20;;;;;;;5.43;2.95;;;2.60;99.90;;;;;;4955714;29;20102;-72
2023/12/05 00:29:49;;;;;;;6.72;3.42;;;2.60;99.90;;;;;;4955950;29;20102;-71
2023/12/05 00:32:15;;;;;;;6.95;3.45;;;2.60;99.90;;;;;;4955603;28;20506;-74
2023/12/05 00:34:42;;;;;;;6.00;3.15;;;2.60;99.90;;;;;;4955751;29;20027;-71
2023/12/05 00:37:08;;;;;;;5.28;2.78;;;2.60;99.90;;;;;;4955666;29;20019;-72
2023/12/05 00:39:33;;;;;;;6.07;2.97;;;2.60;99.90;;;;;;4955475;29;20053;-71
2023/12/05 00:41:59;;;;;;;4.22;2.75;;;2.60;99.90;;;;;;4955731;28;20036;-72
2023/12/05 00:44:24;;;;;;;5.75;3.40;;;2.60;99.90;;;;;;4955397;29;20652;-73
2023/12/05 00:46:50;;;;;;;7.15;4.00;;;2.60;99.90;;;;;;4955251;28;20030;-73
2023/12/05 00:49:15;;;;;;;8.10;4.03;;;2.60;99.90;;;;;;4955013;29;20107;-73
2023/12/05 00:51:41;;;;;;;5.75;2.88;;;2.60;99.90;;;;;;4953975;29;20035;-74
2023/12/05 00:54:07;;;;;;;7.15;3.35;;;2.60;99.90;;;;;;4954547;29;20033;-73
2023/12/05 00:56:32;;;;;;;4.95;2.92;;;2.60;99.90;;;;;;4954885;29;20027;-73
2023/12/05 00:58:58;;;;;;;6.70;3.28;;;2.60;99.90;;;;;;4955162;29;20031;-73
2023/12/05 01:01:23;;;;;;;6.60;3.42;;;2.60;99.90;;;;;;4955243;28;20034;-74
2023/12/05 01:03:51;;;;;;;6.45;3.38;;;2.60;99.90;;;;;;4954980;29;20089;-74
2023/12/05 01:06:17;;;;;;;5.57;3.17;;;2.60;99.90;;;;;;4954835;29;20027;-73
2023/12/05 01:08:43;;;;;;;5.70;2.97;;;2.60;99.90;;;;;;4954847;29;20028;-73
2023/12/05 01:11:11;;;;;;;5.63;2.75;;;2.60;99.90;;;;;;4954972;29;20501;-73
2023/12/05 01:13:36;;;;;;;5.30;3.10;;;2.60;99.90;;;;;;4954491;28;20450;-72
2023/12/05 01:16:03;;;;;;;6.05;3.05;;;2.60;99.90;;;;;;4954501;29;20027;-73
2023/12/05 01:18:29;;;;;;;4.25;2.92;;;2.60;99.90;;;;;;4954730;29;20039;-73
2023/12/05 01:20:54;;;;;;;6.90;3.35;;;2.60;99.90;;;;;;4954869;29;20537;-73
2023/12/05 01:23:20;;;;;;;5.40;3.08;;;2.60;99.90;;;;;;4954396;28;20053;-73
2023/12/05 01:25:46;;;;;;;5.70;3.22;;;2.60;99.90;;;;;;4954660;29;20035;-73
2023/12/05 01:28:12;;;;;;;5.63;2.83;;;2.60;99.90;;;;;;4954523;29;20459;-73
2023/12/05 01:30:37;;;;;;;5.18;3.08;;;2.60;99.90;;;;;;4954437;29;20034;-73
2023/12/05 01:33:03;;;;;;;5.78;3.13;;;2.60;99.90;;;;;;4954433;28;20032;-73
2023/12/05 01:35:29;;;;;;;5.30;3.20;;;2.60;99.90;;;;;;4953981;29;20328;-73
2023/12/05 01:37:54;;;;;;;6.10;3.05;;;2.60;99.90;;;;;;4954499;29;20459;-73
2023/12/05 01:40:20;;;;;;;4.40;3.00;;;2.60;99.90;;;;;;4954360;29;20063;-73
2023/12/05 01:42:45;;;;;;;4.43;2.78;;;2.70;99.90;;;;;;4953893;28;20031;-73
2023/12/05 01:45:11;;;;;;;7.53;3.42;;;2.70;99.90;;;;;;4954363;29;20039;-74
2023/12/05 01:47:39;;;;;;;5.03;3.20;;;2.70;99.90;;;;;;4954109;29;20027;-74
2023/12/05 01:50:10;;;;;;;4.97;3.05;;;2.70;99.90;;;;;;4954238;29;20149;-74
2023/12/05 01:52:40;;;;;;;5.90;3.25;;;2.80;99.90;;;;;;4954571;28;20023;-74
2023/12/05 01:55:08;;;;;;;4.05;2.55;;;2.70;99.90;;;;;;4954555;29;20483;-74
2023/12/05 01:57:35;;;;;;;5.05;2.95;;;2.80;99.90;;;;;;4954533;29;20019;-73
2023/12/05 02:00:01;;;;;;;5.28;2.95;;;2.80;99.90;;;;;;4956562;28;20019;-74
2023/12/05 02:02:27;;;;;;;5.05;2.60;;;2.80;99.90;;;;;;4958091;28;20027;-74
2023/12/05 02:04:53;;;;;;;5.18;2.80;;;2.70;99.90;;;;;;4958025;29;20497;-73
2023/12/05 02:07:18;;;;;;;6.50;3.40;;;2.80;99.90;;;;;;4958418;29;20043;-74
2023/12/05 02:09:47;;;;;;;6.07;3.13;;;2.80;99.90;;;;;;4958270;29;20085;-74
2023/12/05 02:12:12;;;;;;;4.45;2.63;;;2.80;99.90;;;;;;4957842;28;20030;-72
2023/12/05 02:14:40;;;;;;;5.15;2.65;;;2.70;99.90;;;;;;4957822;29;20394;-74
2023/12/05 02:17:12;;;;;;;5.22;3.15;;;2.70;99.90;;;;;;4957696;29;20083;-74
2023/12/05 02:20:14;;;;;;;5.57;3.10;;;2.70;99.90;;;;;;4957814;29;20020;-74
2023/12/05 02:22:54;;;;;;;4.85;3.13;;;2.70;99.90;;;;;;4957990;28;20051;-73
2023/12/05 02:25:38;;;;;;;6.90;3.90;;;2.70;99.90;;;;;;4957900;29;20038;-73
2023/12/05 02:28:05;;;;;;;6.28;3.40;;;2.60;99.90;;;;;;4957962;29;20504;-72
2023/12/05 02:30:30;;;;;;;5.70;3.33;;;2.70;99.90;;;;;;4957560;29;20026;-72
2023/12/05 02:32:56;;;;;;;4.85;3.05;;;2.70;99.90;;;;;;4957410;28;20391;-74
2023/12/05 02:35:22;;;;;;;5.90;3.50;;;2.60;99.90;;;;;;4957264;29;20035;-72
2023/12/05 02:37:57;;;;;;;4.78;2.97;;;2.60;99.90;;;;;;4957443;29;20077;-73
2023/12/05 02:40:31;;;;;;;6.30;3.75;;;2.60;99.90;;;;;;4957504;29;20054;-75
2023/12/05 02:42:57;;;;;;;6.72;3.60;;;2.60;99.90;;;;;;4957073;28;20062;-73
2023/12/05 02:45:28;;;;;;;5.32;3.17;;;2.60;99.90;;;;;;4940175;29;20035;-73
2023/12/05 02:47:56;;;;;;;6.05;3.47;;;2.60;99.90;;;;;;4957170;29;20031;-71
2023/12/05 02:50:21;;;;;;;6.80;3.42;;;2.60;99.90;;;;;;4939943;29;20058;-75
2023/12/05 02:52:47;;;;;;;5.15;3.42;;;2.60;99.90;;;;;;4956904;29;20059;-73
2023/12/05 02:55:13;;;;;;;7.35;3.40;;;2.60;99.90;;;;;;4957384;29;20189;-73
2023/12/05 02:57:38;;;;;;;6.18;3.60;;;2.60;99.90;;;;;;4957053;29;20043;-72
2023/12/05 03:00:04;;;;;;;10.65;4.45;;;2.60;99.90;;;;;;4957113;29;20020;-73
2023/12/05 03:02:30;;;;;;;6.03;3.40;;;2.60;99.90;;;;;;4956784;29;20505;-73
2023/12/05 03:04:56;;;;;;;5.93;3.65;;;2.60;99.90;;;;;;4975708;28;20031;-72
2023/12/05 03:07:21;;;;;;;6.80;3.85;;;2.60;99.90;;;;;;4976406;28;20506;-72
2023/12/05 03:09:47;;;;;;;6.20;3.75;;;2.60;99.90;;;;;;4976218;28;20027;-73
2023/12/05 03:12:12;;;;;;;7.10;3.80;;;2.60;99.90;;;;;;4974890;28;20031;-72
2023/12/05 03:14:38;;;;;;;7.75;4.07;;;2.60;99.90;;;;;;4943279;29;20459;-73
2023/12/05 03:17:04;;;;;;;7.45;4.43;;;2.50;99.90;;;;;;4957768;29;20027;-74
2023/12/05 03:19:29;;;;;;;7.03;4.22;;;2.50;99.90;;;;;;4955581;28;20027;-74
2023/12/05 03:21:55;;;;;;;7.30;4.22;;;2.50;99.90;;;;;;4956318;28;20054;-72
2023/12/05 03:24:21;;;;;;;7.30;3.95;;;2.50;99.90;;;;;;4956497;29;20059;-73
2023/12/05 03:26:46;;;;;;;5.53;3.85;;;2.50;99.90;;;;;;4956420;29;20031;-74
2023/12/05 03:29:12;;;;;;;5.47;3.28;;;2.50;99.90;;;;;;4956549;29;20031;-74
2023/12/05 03:31:39;;;;;;;6.97;3.10;;;2.50;99.90;;;;;;4956385;28;20027;-74
2023/12/05 03:34:05;;;;;;;6.93;3.70;;;2.50;99.90;;;;;;4956071;29;20081;-74
2023/12/05 03:36:31;;;;;;;7.63;3.83;;;2.40;99.90;;;;;;4956521;29;20023;-74
2023/12/05 03:38:57;;;;;;;5.68;3.40;;;2.40;99.90;;;;;;4956398;29;20486;-74
2023/12/05 03:41:22;;;;;;;7.43;3.50;;;2.50;99.90;;;;;;4956353;28;20435;-75
2023/12/05 03:43:48;;;;;;;5.40;3.33;;;2.50;99.90;;;;;;4983666;23;20751;-75
2023/12/05 03:46:14;;;;;;;6.40;3.47;;;2.50;99.90;;;;;;4989119;28;20146;-75
2023/12/05 03:48:39;;;;;;;5.55;3.10;;;2.50;99.90;;;;;;4997250;28;20109;-74
2023/12/05 03:51:05;;;;;;;6.07;3.60;;;2.60;99.90;;;;;;4988140;28;20023;-75
2023/12/05 03:53:31;;;;;;;5.90;3.25;;;2.60;99.90;;;;;;4984381;28;20440;-74
2023/12/05 03:55:56;;;;;;;6.93;3.70;;;2.60;99.90;;;;;;4992192;28;20056;-74
2023/12/05 03:58:22;;;;;;;5.05;3.22;;;2.60;99.90;;;;;;4991363;28;20507;-74
2023/12/05 04:00:48;;;;;;;6.05;3.40;;;2.60;99.90;;;;;;4989803;28;20026;-74
2023/12/05 04:03:14;;;;;;;6.82;2.80;;;2.60;99.90;;;;;;5005203;28;20034;-74
2023/12/05 04:05:40;;;;;;;7.22;3.40;;;2.60;99.90;;;;;;5007240;28;20109;-74
2023/12/05 04:08:06;;;;;;;4.43;2.95;;;2.70;99.90;;;;;;4987993;28;20453;-74
2023/12/05 04:10:32;;;;;;;6.40;3.40;;;2.60;99.90;;;;;;4985374;28;20568;-74
2023/12/05 04:12:57;;;;;;;7.07;3.90;;;2.60;99.90;;;;;;4994904;28;20112;-74
2023/12/05 04:15:23;;;;;;;5.95;3.75;;;2.70;99.90;;;;;;4987322;28;20110;-74
2023/12/05 04:17:48;;;;;;;9.35;4.18;;;2.70;99.90;;;;;;4992658;28;20387;-74
2023/12/05 04:20:14;;;;;;;7.13;3.35;;;2.70;99.90;;;;;;4987509;28;20460;-74
2023/12/05 04:22:40;;;;;;;5.25;2.95;;;2.60;99.90;;;;;;4990936;28;20022;-74
2023/12/05 04:25:06;;;;;;;4.53;3.05;;;2.60;99.90;;;;;;4990210;28;20057;-74
2023/12/05 04:27:32;;;;;;;6.95;3.70;;;2.60;99.90;;;;;;4985657;28;20528;-74
2023/12/05 04:29:59;;;;;;;6.05;3.70;;;2.60;99.90;;;;;;4989016;28;20392;-74
2023/12/05 04:32:25;;;;;;;8.45;4.05;;;2.60;99.90;;;;;;4984542;28;20061;-74
2023/12/05 04:34:50;;;;;;;7.10;4.07;;;2.50;99.90;;;;;;4986590;28;20062;-74
2023/12/05 04:37:16;;;;;;;6.50;3.00;;;2.50;99.90;;;;;;4985905;28;20027;-74
2023/12/05 04:39:41;;;;;;;7.18;3.42;;;2.50;99.90;;;;;;4989456;28;20497;-74
2023/12/05 04:42:07;;;;;;;7.57;3.53;;;2.50;99.90;;;;;;4989899;28;20054;-74
2023/12/05 04:44:32;;;;;;;6.60;3.15;;;2.50;99.90;;;;;;4985951;28;20037;-74
2023/12/05 04:46:59;;;;;;;4.60;2.88;;;2.50;99.90;;;;;;4988454;28;20091;-74
2023/12/05 04:49:25;;;;;;;6.95;3.10;;;2.50;99.90;;;;;;4987700;28;20076;-74
2023/12/05 04:51:50;;;;;;;7.85;3.63;;;2.50;99.90;;;;;;4987562;28;20888;-75
2023/12/05 04:54:16;;;;;;;7.47;3.55;;;2.50;99.90;;;;;;4988187;28;20120;-75
2023/12/05 04:56:42;;;;;;;7.30;3.08;;;2.50;99.90;;;;;;4985619;28;20022;-75
2023/12/05 04:59:08;;;;;;;6.65;3.22;;;2.50;99.90;;;;;;4990174;28;20692;-75
2023/12/05 05:01:33;;;;;;;5.57;3.15;;;2.50;99.90;;;;;;5003451;28;20037;-75
2023/12/05 05:03:59;;;;;;;7.05;3.70;;;2.50;99.90;;;;;;4987815;28;20038;-75
2023/12/05 05:06:25;;;;;;;6.55;3.40;;;2.50;99.90;;;;;;4987785;28;20405;-75
2023/12/05 05:08:51;;;;;;;7.10;3.95;;;2.40;99.90;;;;;;4985808;28;20038;-74
2023/12/05 05:11:16;;;;;;;6.97;3.90;;;2.40;99.90;;;;;;4990427;28;20062;-75
2023/12/05 05:13:42;;;;;;;7.60;4.68;;;2.40;99.90;;;;;;4992844;28;20485;-75
2023/12/05 05:16:09;;;;;;;6.68;3.70;;;2.50;99.90;;;;;;4990033;28;20413;-75
2023/12/05 05:18:34;;;;;;;7.50;4.38;;;2.50;99.90;;;;;;4983725;28;20026;-75
2023/12/05 05:21:00;;;;;;;7.35;3.95;;;2.40;99.90;;;;;;4988329;28;20038;-75
2023/12/05 05:23:26;;;;;;;8.02;3.55;;;2.40;99.90;;;;;;4988603;28;20030;-75
2023/12/05 05:25:51;;;;;;;7.20;3.67;;;2.50;99.90;;;;;;4989820;28;20022;-75
2023/12/05 05:28:17;;;;;;;8.20;4.07;;;2.50;99.90;;;;;;4983657;28;20033;-75
2023/12/05 05:30:43;;;;;;;5.25;3.42;;;2.50;99.90;;;;;;4988394;28;20019;-75
2023/12/05 05:33:08;;;;;;;5.95;3.13;;;2.60;99.90;;;;;;4984859;28;20038;-74
2023/12/05 05:35:34;;;;;;;9.80;4.05;;;2.60;99.90;;;;;;4984448;28;20037;-74
2023/12/05 05:38:00;;;;;;;7.35;3.83;;;2.60;99.90;;;;;;4989095;28;20501;-75
2023/12/05 05:40:27;;;;;;;17.42;10.02;;;2.60;99.90;;;;;;4988691;28;20029;-74
2023/12/05 05:42:53;;;;;;;5.70;3.58;;;2.60;99.90;;;;;;4986960;28;20041;-75
2023/12/05 05:45:18;;;;;;;5.60;3.22;;;2.60;99.90;;;;;;4989192;28;20034;-75
2023/12/05 05:47:44;;;;;;;5.15;3.42;;;2.70;99.90;;;;;;4989374;28;20109;-74
2023/12/05 05:50:11;;;;;;;6.40;3.63;;;2.70;99.90;;;;;;4983277;28;20468;-74
2023/12/05 05:52:37;;;;;;;7.20;4.13;;;2.70;99.90;;;;;;4986119;28;20109;-74
2023/12/05 05:55:03;;;;;;;6.95;3.78;;;2.70;99.90;;;;;;4991390;28;20537;-74
2023/12/05 05:57:29;;;;;;;5.20;3.05;;;2.60;99.90;;;;;;4981273;28;20080;-74
2023/12/05 05:59:54;;;;;;;7.18;3.30;;;2.60;99.90;;;;;;4985348;28;20098;-75
2023/12/05 06:02:21;;;;;;;5.03;3.30;;;2.60;99.90;;;;;;5004250;28;20022;-75
2023/12/05 06:04:46;;;;;;;7.30;3.13;;;2.60;99.90;;;;;;4985827;28;20042;-74
2023/12/05 06:07:12;;;;;;;6.72;2.90;;;2.50;99.90;;;;;;4988375;28;20408;-74
2023/12/05 06:09:38;;;;;;;6.63;3.08;;;2.50;99.90;;;;;;4989007;28;20117;-75
2023/12/05 06:12:04;;;;;;;8.20;3.10;;;2.50;99.90;;;;;;4987817;28;20045;-75
2023/12/05 06:14:30;;;;;;;5.32;2.85;;;2.50;99.90;;;;;;4989645;28;20145;-75
2023/12/05 06:16:56;;;;;;;4.60;3.00;;;2.40;99.90;;;;;;4984671;28;20173;-75
2023/12/05 06:19:21;;;;;;;8.98;2.83;;;2.40;99.90;;;;;;4985159;28;20042;-75
2023/12/05 06:21:47;;;;;;;6.40;2.95;;;2.40;99.90;;;;;;4993002;28;20447;-73
2023/12/05 06:24:12;;;;;;;7.03;2.70;;;2.30;99.90;;;;;;4988510;28;20035;-74
2023/12/05 06:26:38;;;;;;;4.50;2.50;;;2.30;99.90;;;;;;4979404;28;20034;-73
2023/12/05 06:29:04;;;;;;;6.10;3.20;;;2.30;99.90;;;;;;4991002;28;20049;-74
2023/12/05 06:31:30;;;;;;;4.85;2.38;;;2.20;99.90;;;;;;4994347;28;20153;-74
2023/12/05 06:33:56;;;;;;;4.82;2.40;;;2.30;99.90;;;;;;4990471;28;20479;-73
2023/12/05 06:36:21;;;;;;;4.55;2.40;;;2.30;99.90;;;;;;4988508;28;20026;-73
2023/12/05 06:38:47;;;;;;;4.72;2.13;;;2.40;99.90;;;;;;5003595;28;20113;-74
2023/12/05 06:41:12;;;;;;;5.15;2.45;;;2.40;99.90;;;;;;4991697;28;20021;-74
2023/12/05 06:43:38;;;;;;;5.07;2.05;;;2.40;99.90;;;;;;4991039;28;20018;-75
2023/12/05 06:46:04;;;;;;;4.32;2.03;;;2.40;99.90;;;;;;4995187;28;20078;-75
2023/12/05 06:48:29;;;;;;;3.75;1.83;;;2.40;99.90;;;;;;4988621;28;20432;-75
2023/12/05 06:50:55;;;;;;;5.97;2.45;;;2.40;99.90;;;;;;4985779;28;20105;-75
2023/12/05 06:53:21;;;;;;;7.13;3.13;;;2.40;99.90;;;;;;4988370;28;20030;-76
2023/12/05 06:55:49;;;;;;;7.95;3.25;;;2.40;99.90;;;;;;4995623;28;20072;-76
2023/12/05 06:58:15;;;;;;;8.68;3.38;;;2.40;99.90;;;;;;4994655;28;20382;-75
2023/12/05 07:00:40;;;;;;;6.20;3.35;;;2.40;99.90;;;;;;4992022;28;20018;-77
2023/12/05 07:03:06;;;;;;;8.00;4.30;;;2.40;99.90;;;;;;4988071;28;20026;-75
2023/12/05 07:05:32;;;;;;;8.18;4.47;;;2.40;99.90;;;;;;4992463;28;20081;-75
2023/12/05 07:07:57;;;;;;;7.85;4.28;;;2.40;99.90;;;;;;4993579;28;20106;-75
2023/12/05 07:10:23;;;;;;;7.72;4.20;;;2.40;99.90;;;;;;4996357;28;20022;-75
2023/12/05 07:12:49;;;;;;;8.55;4.90;;;2.40;99.90;;;;;;4989250;28;20472;-76
2023/12/05 07:15:15;;;;;;;9.35;3.75;;;2.40;99.90;;;;;;4989578;28;20065;-75
2023/12/05 07:17:40;;;;;;;9.20;4.32;;;2.40;99.90;;;;;;4990572;28;20018;-75
2023/12/05 07:20:06;;;;;;;9.63;4.32;;;2.50;99.90;;;;;;4991219;28;20053;-75
2023/12/05 07:22:33;;;;;;;9.63;4.97;;;2.50;99.90;;;;;;4990345;28;20027;-75
2023/12/05 07:24:59;;;;;;;10.93;4.97;;;2.50;99.90;;;;;;4989846;28;20034;-75
2023/12/05 07:27:24;;;;;;;7.13;4.35;;;2.50;99.90;;;;;;4989087;28;20030;-75
2023/12/05 07:29:50;;;;;;;8.60;4.45;;;2.50;99.90;;;;;;4985789;28;20030;-75
2023/12/05 07:32:15;;;;;;;8.95;4.63;;;2.60;99.90;;;;;;4989543;28;20370;-76
2023/12/05 07:34:42;;;;;;;9.75;5.35;;;2.60;99.90;;;;;;4991258;28;20029;-76
2023/12/05 07:37:08;;;;;;;14.52;4.85;;;2.60;99.90;;;;;;4995919;28;20029;-75
2023/12/05 07:39:34;;;;;;;11.10;4.50;;;2.60;99.90;;;;;;4990144;28;20669;-74
2023/12/05 07:42:00;;;;;;;9.75;5.00;;;2.70;99.90;;;;;;4991285;28;20038;-76
2023/12/05 07:44:27;;;;;;;9.07;5.78;;;2.70;99.90;;;;;;4987101;28;20057;-75
2023/12/05 07:46:52;;;;;;;11.48;4.80;;;2.70;99.90;;;;;;4999734;28;20026;-76
2023/12/05 07:49:18;;;;;;;8.45;4.32;;;2.70;99.90;;;;;;4989953;28;20570;-76
2023/12/05 07:51:43;;;;;;;10.32;5.10;;;2.70;99.90;;;;;;4986892;28;20035;-75
2023/12/05 07:54:09;;;;;;;11.32;4.97;;;2.80;99.90;;;;;;4990029;28;20469;-75
2023/12/05 07:56:35;;;;;;;13.38;5.28;;;2.70;99.90;;;;;;4991803;28;20409;-75
2023/12/05 07:59:00;;;;;;;11.50;4.57;;;2.70;99.90;;;;;;4991488;28;20031;-75
2023/12/05 08:01:26;;;;;;;9.15;4.50;;;2.70;99.90;;;;;;4989553;28;20037;-75
2023/12/05 08:03:53;;;;;;;8.90;4.63;;;2.80;99.90;;;;;;4987579;28;20057;-76
2023/12/05 08:06:18;;;;;;;9.73;4.22;;;2.80;99.90;;;;;;4992162;28;20022;-74
2023/12/05 08:08:44;;;;;;;9.65;4.68;;;2.80;99.90;;;;;;4993474;28;20092;-75
2023/12/05 08:11:11;;;;;;;11.00;4.53;;;2.80;99.90;;;;;;4987133;28;20205;-75
2023/12/05 08:13:37;;;;;;;12.55;4.55;;;2.80;99.90;;;;;;4989530;28;20112;-75
2023/12/05 08:16:03;;;;;;;7.03;4.13;;;2.80;99.90;;;;;;4990147;28;20105;-75
2023/12/05 08:18:28;;;;;;;8.48;3.38;;;2.80;99.90;;;;;;4991991;28;20178;-75
2023/12/05 08:20:54;;;;;;;5.03;3.25;;;2.80;99.90;;;;;;4991561;28;20027;-75
2023/12/05 08:23:20;;;;;;;9.05;4.32;;;2.80;99.90;;;;;;4993074;28;20420;-76
2023/12/05 08:25:45;;;;;;;10.30;3.78;;;2.90;99.90;;;;;;4992345;28;20030;-76
2023/12/05 08:28:11;;;;;;;7.45;4.13;;;2.90;99.90;;;;;;4991832;28;20088;-76
2023/12/05 08:30:37;;;;;;;7.80;3.47;;;2.90;99.90;;;;;;4988967;28;20035;-76
2023/12/05 08:33:05;;;;;;;6.18;3.60;;;2.90;99.90;;;;;;4988360;28;20619;-76
2023/12/05 08:35:31;;;;;;;5.40;3.08;;;3.00;99.90;;;;;;4985733;28;20022;-76
2023/12/05 08:37:56;;;;;;;5.43;3.15;;;3.00;99.90;;;;;;4986360;28;20126;-76
2023/12/05 08:40:22;;;;;;;5.32;3.38;;;3.10;99.90;;;;;;4988125;28;20482;-76
2023/12/05 08:42:48;;;;;;;4.68;2.75;;;3.20;99.90;;;;;;4987865;28;20026;-76
2023/12/05 08:45:14;;;;;;;7.35;3.38;;;3.20;99.90;;;;;;4987625;28;20038;-76
2023/12/05 08:47:39;;;;;;;7.35;3.78;;;3.20;99.90;;;;;;4993510;28;20447;-77
2023/12/05 08:50:07;;;;;;;5.18;3.30;;;3.30;99.90;;;;;;4989244;28;20126;-76
2023/12/05 08:52:33;;;;;;;11.27;3.80;;;3.40;99.90;;;;;;4989982;28;20104;-76
2023/12/05 08:55:00;;;;;;;5.63;3.65;;;3.50;99.90;;;;;;4991190;28;20037;-77
2023/12/05 08:57:26;;;;;;;8.68;4.38;;;3.50;99.90;;;;;;4992472;28;20420;-77
2023/12/05 08:59:52;;;;;;;6.43;3.42;;;3.50;99.90;;;;;;4988031;28;20030;-77
2023/12/05 09:02:19;;;;;;;7.88;4.32;;;3.50;99.90;;;;;;4986366;28;20064;-77
2023/12/05 09:04:45;;;;;;;8.52;4.07;;;3.60;99.90;;;;;;4987693;28;20030;-77
2023/12/05 09:07:10;;;;;;;6.50;3.97;;;3.60;99.90;;;;;;4988756;28;20033;-76
2023/12/05 09:09:36;;;;;;;9.63;3.20;;;3.60;99.90;;;;;;4991234;28;20041;-77
2023/12/05 09:12:02;;;;;;;9.00;4.00;;;3.60;99.90;;;;;;4987647;28;20107;-77
2023/12/05 09:14:27;;;;;;;9.43;4.25;;;3.60;99.90;;;;;;4984484;28;20026;-77
2023/12/05 09:16:53;;;;;;;5.97;3.13;;;3.70;99.90;;;;;;4998005;28;20397;-77
2023/12/05 09:19:22;;;;;;;7.85;4.47;;;3.70;99.90;;;;;;4990887;28;20023;-77
2023/12/05 09:21:53;;;;;;;8.10;4.35;;;3.70;99.90;;;;;;4985222;28;20034;-75
2023/12/05 09:24:21;;;;;;;8.43;4.30;;;3.80;99.90;;;;;;4993588;28;20484;-75
2023/12/05 09:26:53;;;;;;;7.32;3.97;;;3.90;99.90;;;;;;4983745;28;20433;-75
2023/12/05 09:29:22;;;;;;;7.47;3.17;;;3.90;99.90;;;;;;4988377;28;20045;-76
2023/12/05 09:31:50;;;;;;;6.43;3.30;;;4.00;99.90;;;;;;4988040;28;20030;-75
2023/12/05 09:34:16;;;;;;;9.30;3.90;;;4.10;99.90;;;;;;4993842;28;20030;-76
2023/12/05 09:36:41;;;;;;;8.00;3.45;;;4.20;99.90;;;;;;4992436;28;20022;-75
2023/12/05 09:39:07;;;;;;;7.47;3.47;;;4.20;99.90;;;;;;4990889;28;20455;-76
2023/12/05 09:41:40;;;;;;;7.28;3.55;;;4.30;99.90;;;;;;4988183;28;20037;-76
2023/12/05 09:44:08;;;;;;;6.90;3.38;;;4.40;99.90;;;;;;5002347;23;20474;-71
2023/12/05 09:46:36;;;;;;;7.22;3.72;;;4.40;99.90;;;;;;4995147;28;20590;-71
2023/12/05 09:49:08;;;;;;;5.80;2.63;;;4.50;99.90;;;;;;4993035;28;20496;-71
2023/12/05 09:51:35;;;;;;;5.53;2.50;;;4.60;99.90;;;;;;4993189;28;20106;-71
2023/12/05 09:54:06;;;;;;;5.53;2.38;;;4.60;99.90;;;;;;4992788;28;20057;-72
2023/12/05 09:56:35;;;;;;;3.92;2.20;;;4.70;99.90;;;;;;4993114;28;20543;-71
2023/12/05 09:59:02;;;;;;;3.45;1.70;;;4.80;99.90;;;;;;4992887;28;20112;-73
2023/12/05 10:01:31;;;;;;;4.78;1.30;;;4.80;99.90;;;;;;4993861;28;20036;-72
2023/12/05 10:04:01;;;;;;;3.35;1.10;;;4.90;99.90;;;;;;4994658;28;20061;-71
2023/12/05 10:06:29;;;;;;;2.42;0.98;;;5.00;99.90;;;;;;4994420;28;20033;-70
2023/12/05 10:08:56;;;;;;;2.30;1.10;;;5.10;99.90;;;;;;4994454;28;20026;-71
2023/12/05 10:11:24;;;;;;;2.85;0.80;;;5.10;99.90;;;;;;4994046;28;20656;-71
2023/12/05 10:13:50;;;;;;;1.73;0.80;;;5.10;99.90;;;;;;4993872;28;20484;-71
2023/12/05 10:16:17;;;;;;;2.30;0.60;;;5.10;99.90;;;;;;4993850;28;20030;-70
2023/12/05 10:18:49;;;;;;;2.28;0.80;;;5.10;99.90;;;;;;4992678;28;20450;-70
2023/12/05 10:21:20;;;;;;;1.73;0.73;;;5.10;99.90;;;;;;4995548;28;20450;-70
2023/12/05 10:23:51;;;;;;;3.30;0.70;;;5.10;99.90;;;;;;4997561;28;20022;-70
2023/12/05 10:26:17;;;;;;;2.10;0.77;;;5.10;99.90;;;;;;4989755;28;20026;-71
2023/12/05 10:28:56;;;;;;;3.83;0.70;;;5.10;99.90;;;;;;4996926;28;20080;-71
2023/12/05 10:31:27;;;;;;;1.13;0.57;;;5.10;99.90;;;;;;4979007;28;20098;-71
2023/12/05 10:34:04;;;;;;;1.50;0.98;;;5.10;99.90;;;;;;4986932;28;20037;-70
2023/12/05 10:36:29;;;;;;;3.50;1.85;;;5.10;99.90;;;;;;4996220;28;20054;-71
2023/12/05 10:38:55;;;;;;;2.38;1.02;;;5.10;99.90;;;;;;4997142;28;20033;-70
2023/12/05 10:41:27;;;;;;;0.85;0.60;;;5.00;99.90;;;;;;4997826;28;20033;-70
2023/12/05 10:43:56;;;;;;;2.25;0.63;;;5.10;99.90;;;;;;4997562;28;20018;-71
2023/12/05 10:46:25;;;;;;;2.95;1.98;;;5.20;99.90;;;;;;4998159;28;20019;-70
2023/12/05 10:48:50;;;;;;;1.80;0.82;;;5.10;99.90;;;;;;4998767;28;20101;-71
2023/12/05 10:51:16;;;;;;;1.40;0.60;;;5.20;99.90;;;;;;4994286;28;20054;-71
2023/12/05 10:53:42;;;;;;;1.33;0.60;;;5.20;99.90;;;;;;4996219;28;20026;-71
2023/12/05 10:56:15;;;;;;;3.75;1.25;;;5.20;99.90;;;;;;4998104;28;20062;-71
2023/12/05 10:58:50;;;;;;;0.77;0.40;;;5.20;99.90;;;;;;5007613;28;20028;-72
2023/12/05 11:01:21;;;;;;;1.05;0.68;;;5.20;99.90;;;;;;4998756;28;20042;-71
2023/12/05 11:03:51;;;;;;;2.22;0.75;;;5.30;99.90;;;;;;4999810;28;20022;-72
2023/12/05 11:06:25;;;;;;;3.13;1.00;;;5.20;99.90;;;;;;5001954;28;20014;-72
2023/12/05 11:08:51;;;;;;;1.30;0.47;;;5.20;99.90;;;;;;4999240;28;20031;-72
2023/12/05 11:11:18;;;;;;;2.00;0.50;;;5.30;99.90;;;;;;4996602;28;20366;-71
2023/12/05 11:13:46;;;;;;;2.10;0.73;;;5.40;99.90;;;;;;4992198;28;20069;-72
2023/12/05 11:16:23;;;;;;;0.88;0.50;;;5.30;99.90;;;;;;4998115;28;20077;-71
2023/12/05 11:19:10;;;;;;;1.92;0.55;;;5.40;99.90;;;;;;4991361;28;20019;-71
2023/12/05 11:21:58;;;;;;;0.63;0.38;;;5.50;99.90;;;;;;5007972;28;20129;-71
2023/12/05 11:24:32;;;;;;;1.50;0.40;;;5.60;99.90;;;;;;5002099;28;20034;-72
2023/12/05 11:27:35;;;;;;;1.10;0.47;;;5.60;99.90;;;;;;5003932;28;20030;-71
2023/12/05 11:30:23;;;;;;;1.15;0.50;;;5.50;99.90;;;;;;4994815;28;20065;-71
2023/12/05 11:33:12;;;;;;;1.90;0.50;;;5.50;99.90;;;;;;4992699;28;20295;-72
2023/12/05 11:35:53;;;;;;;0.95;0.55;;;5.60;99.90;;;;;;4996181;28;20477;-72
2023/12/05 11:38:20;;;;;;;1.60;0.38;;;5.60;99.90;;;;;;4993950;28;20477;-72
2023/12/05 11:41:12;;;;;;;1.35;0.30;;;5.60;99.90;;;;;;4993054;28;20018;-71
2023/12/05 11:43:44;;;;;;;0.95;0.40;;;5.60;99.90;;;;;;4994450;28;20025;-72
2023/12/05 11:46:10;;;;;;;1.15;0.47;;;5.60;99.90;;;;;;4995244;28;20030;-71
2023/12/05 11:48:36;;;;;;;1.73;0.40;;;5.60;99.90;;;;;;4995543;28;20053;-72
2023/12/05 11:51:02;;;;;;;1.23;0.30;;;5.50;99.90;;;;;;4997934;28;20026;-72
2023/12/05 11:53:38;;;;;;;3.25;0.73;;;5.60;99.90;;;;;;4996349;28;20157;-72
2023/12/05 11:56:18;;;;;;;1.70;0.40;;;5.50;99.90;;;;;;4997513;28;20109;-71
2023/12/05 11:58:52;;;;;;;0.47;0.28;;;5.50;99.90;;;;;;4993712;28;20412;-72
2023/12/05 12:01:21;;;;;;;1.52;0.65;;;5.50;99.90;;;;;;4992220;28;20481;-72
2023/12/05 12:03:53;;;;;;;1.77;0.50;;;5.60;99.90;;;;;;4997198;28;20057;-71
2023/12/05 12:06:23;;;;;;;2.30;0.80;;;5.60;99.90;;;;;;4993298;28;20022;-72
2023/12/05 12:08:57;;;;;;;2.65;0.77;;;5.60;99.90;;;;;;4997330;28;20029;-71
2023/12/05 12:11:23;;;;;;;2.33;0.80;;;5.70;99.90;;;;;;4997003;28;20041;-71
2023/12/05 12:13:51;;;;;;;2.50;0.63;;;5.60;99.90;;;;;;4995177;28;20038;-72
2023/12/05 12:16:20;;;;;;;1.20;0.60;;;5.70;99.90;;;;;;4993913;28;20031;-72
2023/12/05 12:18:47;;;;;;;4.38;1.30;;;5.80;99.90;;;;;;4994888;28;20028;-72
2023/12/05 12:21:13;;;;;;;1.33;0.57;;;5.80;99.90;;;;;;4995903;28;20023;-72
2023/12/05 12:23:41;;;;;;;1.23;0.70;;;5.90;99.90;;;;;;4992435;28;20026;-72
2023/12/05 12:26:11;;;;;;;1.33;0.40;;;6.10;99.90;;;;;;4993964;28;20026;-72
2023/12/05 12:28:37;;;;;;;2.03;0.73;;;6.20;99.90;;;;;;4993048;28;20026;-72
2023/12/05 12:31:07;;;;;;;1.77;0.68;;;6.40;99.90;;;;;;4994986;28;20022;-71
2023/12/05 12:33:37;;;;;;;1.95;0.60;;;6.50;99.90;;;;;;4991745;28;20077;-72
2023/12/05 12:36:08;;;;;;;2.97;0.95;;;6.60;99.90;;;;;;4989924;28;20022;-72
2023/12/05 12:38:36;;;;;;;1.42;0.70;;;6.70;99.90;;;;;;4994880;28;20046;-71
2023/12/05 12:41:02;;;;;;;1.52;0.70;;;6.80;99.90;;;;;;4994593;28;20022;-72
2023/12/05 12:43:38;;;;;;;1.52;0.55;;;6.90;99.90;;;;;;4996758;28;20084;-71
2023/12/05 12:46:03;;;;;;;3.30;0.60;;;6.90;99.90;;;;;;4995834;28;20042;-72
2023/12/05 12:48:32;;;;;;;2.35;1.30;;;6.90;99.90;;;;;;4998293;28;20094;-71
2023/12/05 12:51:01;;;;;;;3.30;0.88;;;6.80;99.90;;;;;;4996670;28;20485;-71
2023/12/05 12:53:26;;;;;;;1.92;0.80;;;6.70;99.90;;;;;;4998802;28;20519;-72
2023/12/05 12:55:55;;;;;;;4.63;1.83;;;6.60;99.90;;;;;;4989750;28;20015;-71
2023/12/05 12:58:26;;;;;;;3.25;1.48;;;6.60;99.90;;;;;;4994074;28;20027;-71